Time;durP1;ratioP1;P1;durP2;ratioP2;P2;SDS_P1;SDS_P2;PMS_P1;PMS_P2;Temp;Humidity;BMP_temperature;BMP_pressure;BME280_temperature;BME280_humidity;BME280_pressure;Samples;Min_cycle;Max_cycle;Signal;HPM_P1;HPM_P2
2023/07/19 00:01:52;;;;;;;9.20;4.40;;;;;;;16.08;100.00;150113.72;4999116;28;20263;-65
2023/07/19 00:04:18;;;;;;;11.77;4.80;;;;;;;16.02;100.00;150097.50;5001784;28;20235;-65
2023/07/19 00:07:38;;;;;;;9.30;4.30;;;;;;;15.99;100.00;150090.00;4988874;28;20236;-65
2023/07/19 00:10:06;;;;;;;9.03;5.07;;;;;;;15.98;100.00;150087.50;4994094;28;20229;-65
2023/07/19 00:12:33;;;;;;;8.03;4.80;;;;;;;16.04;100.00;150103.72;4999497;28;20224;-66
2023/07/19 00:15:01;;;;;;;10.53;4.73;;;;;;;16.02;100.00;150097.50;5002884;28;20240;-66
2023/07/19 00:17:27;;;;;;;8.17;4.37;;;;;;;16.06;100.00;150107.50;5000399;28;20229;-65
2023/07/19 00:19:54;;;;;;;11.40;4.33;;;;;;;16.09;100.00;150115.00;5002850;28;20225;-66
2023/07/19 00:22:21;;;;;;;9.17;4.80;;;;;;;16.17;100.00;150135.00;4999811;28;20254;-65
2023/07/19 00:24:47;;;;;;;9.87;5.13;;;;;;;16.23;100.00;150150.00;4997175;28;20237;-65
2023/07/19 00:27:14;;;;;;;7.83;4.20;;;;;;;16.22;100.00;150146.22;5001327;28;20230;-66
2023/07/19 00:29:40;;;;;;;9.57;4.30;;;;;;;16.22;100.00;150146.22;4998688;28;20222;-66
2023/07/19 00:32:08;;;;;;;7.77;4.27;;;;;;;16.23;100.00;150150.00;4991947;28;20256;-66
2023/07/19 00:34:35;;;;;;;7.70;4.37;;;;;;;16.26;100.00;150156.22;4999307;28;20231;-65
2023/07/19 00:37:01;;;;;;;9.20;4.90;;;;;;;16.28;100.00;150160.00;4987942;28;20234;-65
2023/07/19 00:39:28;;;;;;;8.80;4.00;;;;;;;16.26;100.00;150155.00;5000816;28;20229;-65
2023/07/19 00:41:55;;;;;;;7.63;4.50;;;;;;;16.25;100.00;150153.72;5000641;28;20224;-65
2023/07/19 00:48:23;;;;;;;9.40;4.80;;;;;;;16.15;100.00;150128.72;4996453;28;20257;-65
2023/07/19 00:51:14;;;;;;;9.07;4.27;;;;;;;16.13;100.00;150125.00;4998064;28;20238;-65
2023/07/19 00:53:45;;;;;;;6.20;4.30;;;;;;;16.15;100.00;150128.72;4996390;28;20708;-65
2023/07/19 00:56:12;;;;;;;11.47;5.10;;;;;;;16.16;100.00;150131.22;4999719;28;20617;-65
2023/07/19 00:58:40;;;;;;;7.90;4.10;;;;;;;16.17;100.00;150135.00;4997376;28;20234;-65
2023/07/19 01:01:07;;;;;;;7.80;4.30;;;;;;;16.18;100.00;150136.22;4999871;28;20244;-65
2023/07/19 01:03:36;;;;;;;10.60;4.60;;;;;;;16.17;100.00;150135.00;4995912;28;20221;-65
2023/07/19 01:06:03;;;;;;;10.97;4.33;;;;;;;16.22;100.00;150147.50;5000039;28;20229;-66
2023/07/19 01:08:30;;;;;;;7.17;4.73;;;;;;;16.20;100.00;150142.50;4997999;28;20221;-63
2023/07/19 01:10:57;;;;;;;9.23;5.00;;;;;;;16.14;100.00;150127.50;5001972;28;20230;-63
2023/07/19 01:13:24;;;;;;;10.10;4.63;;;;;;;16.18;100.00;150136.22;4994767;28;20222;-63
2023/07/19 01:15:51;;;;;;;9.53;4.70;;;;;;;16.17;100.00;150135.00;4996371;28;20222;-63
2023/07/19 01:18:19;;;;;;;8.23;4.73;;;;;;;16.16;100.00;150131.22;5014077;28;20276;-65
2023/07/19 01:20:47;;;;;;;9.37;4.53;;;;;;;16.14;100.00;150126.22;5011855;28;20681;-65
2023/07/19 01:23:15;;;;;;;8.57;4.87;;;;;;;16.13;100.00;150125.00;5006671;28;20570;-66
2023/07/19 01:25:42;;;;;;;10.87;5.10;;;;;;;16.13;100.00;150123.72;5016237;28;20282;-66
2023/07/19 01:28:09;;;;;;;6.30;4.60;;;;;;;16.08;100.00;150113.72;4999157;28;20230;-66
2023/07/19 01:30:35;;;;;;;9.33;4.53;;;;;;;16.07;100.00;150111.22;5001497;28;20260;-66
2023/07/19 01:33:03;;;;;;;9.07;4.73;;;;;;;16.03;100.00;150101.22;5004060;28;20260;-66
2023/07/19 01:35:30;;;;;;;7.57;4.47;;;;;;;16.04;100.00;150102.50;4993163;28;20230;-66
2023/07/19 01:38:02;;;;;;;7.50;3.97;;;;;;;15.96;100.00;150082.50;5019027;28;20340;-66
2023/07/19 01:40:30;;;;;;;7.40;4.33;;;;;;;15.94;100.00;150078.72;5002558;28;20229;-65
2023/07/19 01:43:04;;;;;;;10.07;4.67;;;;;;;15.87;100.00;150061.28;5019639;28;20310;-64
2023/07/19 01:45:31;;;;;;;7.90;4.27;;;;;;;15.88;100.00;150063.78;4996768;28;20224;-66
2023/07/19 01:48:03;;;;;;;7.77;4.30;;;;;;;15.82;100.00;150048.72;5014293;28;20616;-64
2023/07/19 01:50:30;;;;;;;10.80;4.83;;;;;;;15.77;100.00;150038.72;5002243;28;20233;-64
2023/07/19 01:53:04;;;;;;;7.03;4.80;;;;;;;15.77;100.00;150037.47;5003638;28;20225;-65
2023/07/19 01:55:32;;;;;;;10.43;5.93;;;;;;;15.76;100.00;150034.97;4997925;28;20227;-65
2023/07/19 01:58:03;;;;;;;9.53;4.90;;;;;;;15.74;100.00;150031.22;5011017;28;20295;-65
2023/07/19 02:00:29;;;;;;;9.63;5.50;;;;;;;15.69;100.00;150017.47;5003354;28;20235;-64
2023/07/19 02:03:02;;;;;;;7.40;5.00;;;;;;;15.72;100.00;150024.97;5003642;28;20272;-65
2023/07/19 02:05:29;;;;;;;13.20;5.43;;;;;;;15.63;100.00;150004.97;4998926;28;20333;-64
2023/07/19 02:07:59;;;;;;;9.30;5.53;;;;;;;15.61;100.00;149999.97;5003538;28;20236;-65
2023/07/19 02:10:27;;;;;;;8.10;5.23;;;;;;;15.59;100.00;149994.97;5000760;28;20715;-65
2023/07/19 02:12:55;;;;;;;11.47;6.00;;;;;;;15.56;100.00;149987.47;4977671;28;20673;-64
2023/07/19 02:15:22;;;;;;;10.53;5.27;;;;;;;15.59;100.00;149994.97;4984096;28;20320;-64
2023/07/19 02:17:48;;;;;;;8.10;5.60;;;;;;;15.56;100.00;149987.47;4981331;28;20233;-65
2023/07/19 02:20:19;;;;;;;8.47;5.37;;;;;;;15.58;100.00;149991.25;4979590;28;20217;-65
2023/07/19 02:22:45;;;;;;;11.73;6.17;;;;;;;15.59;100.00;149994.97;4979477;28;20228;-65
2023/07/19 02:25:12;;;;;;;12.40;6.33;;;;;;;15.62;100.00;150001.25;4994617;28;20243;-65
2023/07/19 02:27:39;;;;;;;12.00;6.13;;;;;;;15.60;100.00;149997.47;4992658;28;20232;-65
2023/07/19 02:30:08;;;;;;;10.13;6.03;;;;;;;15.57;100.00;149989.97;4991052;28;20577;-65
2023/07/19 02:32:35;;;;;;;6.73;5.30;;;;;;;15.55;100.00;149983.75;4997723;28;20225;-65
2023/07/19 02:35:01;;;;;;;12.50;5.53;;;;;;;15.62;100.00;150001.25;4997566;28;20715;-65
2023/07/19 02:37:28;;;;;;;9.27;6.00;;;;;;;15.59;100.00;149993.75;5007696;28;20221;-65
2023/07/19 02:39:55;;;;;;;10.70;5.93;;;;;;;15.57;100.00;149988.75;4997982;28;20276;-65
2023/07/19 02:42:21;;;;;;;9.23;6.40;;;;;;;15.58;100.00;149991.25;5011827;28;20232;-65
2023/07/19 02:44:49;;;;;;;9.80;6.50;;;;;;;15.54;100.00;149981.25;4999128;28;20327;-65
2023/07/19 02:47:17;;;;;;;10.80;6.50;;;;;;;15.56;100.00;149987.47;4990728;28;20251;-65
2023/07/19 02:49:43;;;;;;;11.63;5.97;;;;;;;15.50;100.00;149972.47;4999214;28;20557;-65
2023/07/19 02:52:10;;;;;;;10.50;6.07;;;;;;;15.53;100.00;149978.75;5002247;28;20228;-65
2023/07/19 02:54:36;;;;;;;9.90;6.43;;;;;;;15.44;100.00;149957.47;4998888;28;20220;-65
2023/07/19 02:57:04;;;;;;;10.23;6.03;;;;;;;15.37;100.00;149941.28;5002863;28;20236;-65
2023/07/19 02:59:30;;;;;;;10.63;5.70;;;;;;;15.33;100.00;149931.28;5001445;28;20224;-65
2023/07/19 03:01:57;;;;;;;10.07;6.03;;;;;;;15.39;100.00;149946.25;5005604;28;20224;-65
2023/07/19 03:04:25;;;;;;;12.20;6.50;;;;;;;15.31;100.00;149926.28;5005907;28;20295;-65
2023/07/19 03:06:51;;;;;;;11.97;6.20;;;;;;;15.34;100.00;149933.78;5002293;28;20215;-65
2023/07/19 03:09:18;;;;;;;17.63;6.17;;;;;;;15.32;100.00;149928.78;5014213;28;20233;-65
2023/07/19 03:11:44;;;;;;;14.10;6.00;;;;;;;15.32;100.00;149930.03;5008944;28;20567;-65
2023/07/19 03:14:11;;;;;;;12.77;6.40;;;;;;;15.35;100.00;149936.25;5003099;28;20315;-65
2023/07/19 03:16:38;;;;;;;9.03;5.73;;;;;;;15.39;100.00;149946.25;5006492;28;20415;-65
2023/07/19 03:19:04;;;;;;;9.90;6.50;;;;;;;15.40;100.00;149947.50;4996220;28;20279;-65
2023/07/19 03:21:32;;;;;;;9.73;5.73;;;;;;;15.36;100.00;149938.78;5008587;28;20232;-65
2023/07/19 03:23:59;;;;;;;9.30;6.27;;;;;;;15.37;100.00;149941.28;4995722;28;20808;-65
2023/07/19 03:26:26;;;;;;;10.20;6.13;;;;;;;15.47;100.00;149966.25;5012950;28;20223;-65
2023/07/19 03:28:53;;;;;;;12.60;6.10;;;;;;;15.50;100.00;149972.47;5005006;28;20233;-64
2023/07/19 03:31:19;;;;;;;6.83;5.17;;;;;;;15.55;100.00;149983.75;5185196;23;20240;-65
2023/07/19 03:33:46;;;;;;;10.23;6.27;;;;;;;15.54;100.00;149982.47;4990307;28;20746;-65
2023/07/19 03:36:12;;;;;;;15.17;6.00;;;;;;;15.68;100.00;150016.22;4986756;28;20230;-65
2023/07/19 03:38:40;;;;;;;12.23;6.07;;;;;;;15.68;100.00;150016.22;4984882;28;20229;-65
2023/07/19 03:41:08;;;;;;;12.90;6.33;;;;;;;15.68;100.00;150016.22;4987037;28;20811;-65
2023/07/19 03:43:34;;;;;;;11.33;5.93;;;;;;;15.74;100.00;150029.97;4999458;28;20223;-65
2023/07/19 03:46:01;;;;;;;10.13;5.33;;;;;;;15.78;100.00;150041.22;5006634;28;20230;-65
2023/07/19 03:48:28;;;;;;;11.43;5.70;;;;;;;15.77;100.00;150038.72;4997755;28;20220;-65
2023/07/19 03:50:57;;;;;;;8.43;5.50;;;;;;;15.79;100.00;150043.72;5004778;28;20590;-65
2023/07/19 03:53:24;;;;;;;11.00;6.00;;;;;;;15.82;100.00;150048.72;5006066;28;20217;-65
2023/07/19 03:55:56;;;;;;;14.83;6.00;;;;;;;15.84;100.00;150053.72;5018370;28;20584;-65
2023/07/19 03:58:24;;;;;;;9.57;5.43;;;;;;;15.88;100.00;150063.78;5006240;28;20225;-65
2023/07/19 04:00:52;;;;;;;8.27;5.40;;;;;;;15.83;100.00;150052.44;5017897;28;20225;-65
2023/07/19 04:03:19;;;;;;;8.50;5.53;;;;;;;15.89;100.00;150066.28;5006150;28;20711;-65
2023/07/19 04:05:46;;;;;;;9.10;5.13;;;;;;;15.87;100.00;150062.50;4999971;28;20655;-65
2023/07/19 04:08:14;;;;;;;9.00;5.57;;;;;;;15.85;100.00;150056.22;5020526;28;20232;-65
2023/07/19 04:10:41;;;;;;;6.90;5.40;;;;;;;15.84;100.00;150053.72;5001362;28;20946;-65
2023/07/19 04:13:10;;;;;;;7.63;5.10;;;;;;;15.87;100.00;150062.50;4993168;28;20319;-65
2023/07/19 04:15:38;;;;;;;12.77;5.67;;;;;;;15.91;100.00;150072.50;5008697;28;20240;-65
2023/07/19 04:18:05;;;;;;;11.77;5.67;;;;;;;15.91;100.00;150072.50;5005869;28;20225;-65
2023/07/19 04:20:32;;;;;;;10.27;5.37;;;;;;;15.91;100.00;150072.50;5002776;28;20299;-65
2023/07/19 04:23:03;;;;;;;8.90;5.20;;;;;;;15.97;100.00;150085.00;5018845;28;20302;-65
2023/07/19 04:25:30;;;;;;;7.90;4.80;;;;;;;16.03;100.00;150100.00;4990320;28;20221;-65
2023/07/19 04:28:02;;;;;;;8.43;5.00;;;;;;;16.07;100.00;150111.22;5000283;28;20637;-65
2023/07/19 04:30:30;;;;;;;11.87;5.73;;;;;;;16.07;100.00;150111.22;5001767;28;20267;-65
2023/07/19 04:33:04;;;;;;;7.33;5.33;;;;;;;16.11;100.00;150118.72;5003896;28;20758;-65
2023/07/19 04:35:31;;;;;;;8.50;5.53;;;;;;;16.13;100.00;150125.00;5002463;28;20225;-65
2023/07/19 04:38:04;;;;;;;8.07;5.13;;;;;;;16.16;100.00;150132.50;5022078;28;20707;-65
2023/07/19 04:40:31;;;;;;;9.43;5.70;;;;;;;16.23;100.00;150148.72;5018395;28;20704;-65
2023/07/19 04:43:03;;;;;;;7.90;5.03;;;;;;;16.22;100.00;150146.22;5003966;28;20228;-65
2023/07/19 04:45:31;;;;;;;10.33;5.70;;;;;;;16.22;100.00;150146.22;5001081;28;20237;-65
2023/07/19 04:48:04;;;;;;;9.00;5.83;;;;;;;16.26;100.00;150156.22;5003318;28;20289;-65
2023/07/19 04:50:30;;;;;;;9.30;5.17;;;;;;;16.28;100.00;150161.22;5000890;28;20214;-65
2023/07/19 04:53:03;;;;;;;12.33;4.77;;;;;;;16.29;100.00;150163.72;5004785;28;20222;-65
2023/07/19 04:55:29;;;;;;;8.20;5.07;;;;;;;16.30;100.00;150165.00;5002482;28;20796;-65
2023/07/19 04:58:00;;;;;;;10.37;5.23;;;;;;;16.32;100.00;150171.22;4996233;28;20231;-65
2023/07/19 05:00:27;;;;;;;12.30;5.20;;;;;;;16.35;100.00;150178.72;5003968;28;20235;-65
2023/07/19 05:02:55;;;;;;;10.83;5.30;;;;;;;16.39;100.00;150187.50;4999963;28;20682;-65
2023/07/19 05:05:22;;;;;;;8.50;5.20;;;;;;;16.43;100.00;150196.22;5000013;28;20434;-65
2023/07/19 05:07:49;;;;;;;9.03;5.47;;;;;;;16.45;100.00;150201.22;5001704;28;20709;-65
2023/07/19 05:10:15;;;;;;;10.17;5.63;;;;;;;16.45;100.00;150201.22;5003470;28;20747;-65
2023/07/19 05:12:42;;;;;;;11.13;5.27;;;;;;;16.49;100.00;150211.22;5002236;28;20269;-65
2023/07/19 05:15:09;;;;;;;8.57;5.07;;;;;;;16.49;100.00;150212.44;5004484;28;20236;-65
2023/07/19 05:17:36;;;;;;;9.20;5.20;;;;;;;16.55;100.00;150226.22;5000361;28;20231;-65
2023/07/19 05:20:05;;;;;;;10.17;5.10;;;;;;;16.66;100.00;150252.47;5004647;28;20280;-65
2023/07/19 05:22:33;;;;;;;12.40;5.77;;;;;;;16.64;100.00;150247.44;5000602;28;20605;-65
2023/07/19 05:25:00;;;;;;;9.83;5.17;;;;;;;16.70;100.00;150262.47;5003311;28;20215;-65
2023/07/19 05:27:27;;;;;;;8.07;4.67;;;;;;;16.76;100.00;150276.22;5005293;28;20222;-65
2023/07/19 05:29:53;;;;;;;9.40;5.33;;;;;;;16.75;100.00;150273.75;4998495;28;20225;-65
2023/07/19 05:32:20;;;;;;;8.50;5.33;;;;;;;16.83;100.00;150294.97;5004172;28;20232;-65
2023/07/19 05:34:47;;;;;;;10.13;5.80;;;;;;;16.82;100.00;150291.25;5002989;28;22519;-65
2023/07/19 05:37:15;;;;;;;10.20;5.40;;;;;;;16.88;100.00;150306.25;5005718;28;20240;-65
2023/07/19 05:39:41;;;;;;;8.23;5.03;;;;;;;16.94;100.00;150321.25;5002061;28;20328;-65
2023/07/19 05:42:08;;;;;;;10.73;5.50;;;;;;;16.96;100.00;150324.97;5005480;28;20242;-65
2023/07/19 05:44:35;;;;;;;9.77;5.20;;;;;;;17.05;100.00;150346.25;5002486;28;20724;-64
2023/07/19 05:47:01;;;;;;;8.57;5.00;;;;;;;17.06;100.00;150348.78;5005812;28;20229;-64
2023/07/19 05:49:28;;;;;;;12.20;5.00;;;;;;;17.14;100.00;150368.78;5002088;28;20223;-65
2023/07/19 05:51:57;;;;;;;8.63;4.60;;;;;;;17.22;100.00;150388.78;5002495;28;20274;-65
2023/07/19 05:54:25;;;;;;;11.47;4.97;;;;;;;17.32;100.00;150412.56;5004466;28;20224;-65
2023/07/19 05:56:52;;;;;;;7.03;4.97;;;;;;;17.43;100.00;150437.59;5001028;28;20228;-65
2023/07/19 05:59:19;;;;;;;7.83;4.53;;;;;;;17.55;100.00;150467.56;5005245;28;20233;-65
2023/07/19 06:01:45;;;;;;;10.10;5.40;;;;;;;17.70;100.00;150503.88;5002165;28;20229;-66
2023/07/19 06:04:13;;;;;;;6.97;4.60;;;;;;;17.87;100.00;150545.13;5002079;28;20768;-66
2023/07/19 06:06:39;;;;;;;6.07;4.43;;;;;;;18.05;100.00;150587.72;5001151;28;20283;-65
2023/07/19 06:09:08;;;;;;;7.77;4.67;;;;;;;18.21;100.00;150627.78;5004175;28;20229;-65
2023/07/19 06:11:36;;;;;;;7.37;4.00;;;;;;;18.38;100.00;150667.81;5001418;28;20254;-65
2023/07/19 06:14:03;;;;;;;8.43;4.73;;;;;;;18.44;100.00;150684.06;5003530;28;20344;-65
2023/07/19 06:16:30;;;;;;;6.87;4.83;;;;;;;18.67;100.00;150739.16;5001826;28;20228;-65
2023/07/19 06:18:56;;;;;;;11.10;4.80;;;;;;;18.87;100.00;150786.72;5004496;28;20232;-65
2023/07/19 06:21:25;;;;;;;7.97;4.23;;;;;;;18.95;100.00;150805.47;5003631;28;20233;-65
2023/07/19 06:23:52;;;;;;;8.40;4.20;;;;;;;19.02;100.00;150823.06;5001948;28;20579;-66
2023/07/19 06:26:18;;;;;;;8.03;4.70;;;;;;;18.99;100.00;150815.53;5003896;28;20595;-66
2023/07/19 06:28:46;;;;;;;7.07;4.30;;;;;;;19.14;100.00;150853.09;5001431;28;20226;-66
2023/07/19 06:31:13;;;;;;;7.43;4.43;;;;;;;19.31;100.00;150893.16;5004235;28;20272;-66
2023/07/19 06:33:39;;;;;;;7.50;4.10;;;;;;;19.45;100.00;150928.25;5001116;28;20275;-66
2023/07/19 06:36:06;;;;;;;7.07;3.60;;;;;;;19.63;95.79;150970.78;5004180;28;20693;-66
2023/07/19 06:38:36;;;;;;;9.37;4.53;;;;;;;19.95;100.00;151048.47;5002499;28;20748;-66
2023/07/19 06:41:04;;;;;;;7.03;4.13;;;;;;;20.24;99.06;151118.63;5004477;28;20226;-64
2023/07/19 06:43:30;;;;;;;6.07;3.80;;;;;;;20.47;100.00;151173.78;5000780;28;20647;-64
2023/07/19 06:45:59;;;;;;;8.27;4.00;;;;;;;20.75;100.00;151242.69;5003856;28;20534;-64
2023/07/19 06:48:25;;;;;;;6.93;3.63;;;;;;;21.03;83.31;151310.41;5003047;28;20289;-64
2023/07/19 06:50:52;;;;;;;6.40;3.50;;;;;;;21.31;86.85;151376.81;5001195;28;20587;-64
2023/07/19 06:53:19;;;;;;;7.80;3.97;;;;;;;21.46;82.27;151414.44;5004807;28;20265;-64
2023/07/19 06:55:45;;;;;;;4.50;3.30;;;;;;;21.69;77.90;151469.66;5001833;28;20233;-65
2023/07/19 06:58:12;;;;;;;4.60;3.50;;;;;;;21.87;82.25;151512.22;5002204;28;20243;-65
2023/07/19 07:00:38;;;;;;;9.97;3.40;;;;;;;22.01;71.64;151546.13;4997172;28;20235;-65
2023/07/19 07:03:06;;;;;;;5.03;3.20;;;;;;;21.92;77.92;151526.06;5003620;28;20233;-65
2023/07/19 07:05:33;;;;;;;5.73;3.47;;;;;;;21.95;72.17;151533.56;5001016;28;20225;-65
2023/07/19 07:08:03;;;;;;;9.20;3.33;;;;;;;21.90;71.72;151521.03;5003151;28;20250;-65
2023/07/19 07:10:29;;;;;;;5.13;3.37;;;;;;;21.82;73.41;151500.97;5001088;28;20273;-65
2023/07/19 07:13:21;;;;;;;6.60;3.53;;;;;;;21.67;84.08;151465.84;5004270;28;20233;-65
2023/07/19 07:15:48;;;;;;;6.73;3.57;;;;;;;21.63;84.87;151454.59;4998547;28;20323;-65
2023/07/19 07:18:16;;;;;;;9.43;3.57;;;;;;;21.50;73.85;151423.19;5003430;28;20229;-65
2023/07/19 07:20:43;;;;;;;9.57;3.30;;;;;;;21.48;79.52;151419.44;5000551;28;20228;-65
2023/07/19 07:23:09;;;;;;;5.63;3.17;;;;;;;21.47;76.24;151416.94;5004151;28;20283;-65
2023/07/19 07:25:36;;;;;;;7.00;3.23;;;;;;;21.51;79.06;151425.69;4998946;28;20688;-65
2023/07/19 07:28:04;;;;;;;9.33;3.10;;;;;;;21.55;80.07;151435.72;5003095;28;21207;-65
2023/07/19 07:30:36;;;;;;;7.10;3.67;;;;;;;21.76;87.06;151485.91;4999342;28;20227;-65
2023/07/19 07:33:03;;;;;;;4.83;2.73;;;;;;;22.00;84.09;151543.59;5002857;28;20234;-65
2023/07/19 07:35:31;;;;;;;6.43;3.20;;;;;;;22.21;84.35;151596.28;5000251;28;20688;-65
2023/07/19 07:38:03;;;;;;;5.83;3.10;;;;;;;22.36;72.76;151632.63;5002979;28;20230;-65
2023/07/19 07:40:30;;;;;;;8.30;3.53;;;;;;;22.40;71.15;151641.38;5001873;28;20257;-65
2023/07/19 07:43:03;;;;;;;5.90;3.03;;;;;;;22.39;68.14;151640.16;5004364;28;20304;-65
2023/07/19 07:45:29;;;;;;;7.80;3.33;;;;;;;22.43;79.53;151648.91;5001027;28;20227;-65
2023/07/19 07:48:21;;;;;;;5.97;3.10;;;;;;;22.40;74.26;151642.66;5007519;28;20239;-65
2023/07/19 07:50:51;;;;;;;7.27;3.03;;;;;;;22.43;69.19;151648.91;5003599;28;20592;-65
2023/07/19 07:53:20;;;;;;;10.30;3.17;;;;;;;22.46;65.22;151656.50;5007139;28;20240;-65
2023/07/19 07:55:47;;;;;;;6.10;2.53;;;;;;;22.65;65.21;151701.66;5004491;28;20225;-65
2023/07/19 07:58:14;;;;;;;4.20;2.53;;;;;;;22.79;60.34;151735.56;5007917;28;20238;-65
2023/07/19 08:00:41;;;;;;;6.37;2.90;;;;;;;22.85;65.03;151751.84;5002836;28;20233;-65
2023/07/19 08:03:07;;;;;;;4.37;2.80;;;;;;;22.93;65.30;151769.41;5006905;28;20244;-65
2023/07/19 08:05:34;;;;;;;4.73;2.93;;;;;;;23.09;66.22;151809.56;5004294;28;20222;-66
2023/07/19 08:08:05;;;;;;;4.47;2.70;;;;;;;23.19;68.24;151832.16;5007615;28;20270;-66
2023/07/19 08:10:32;;;;;;;4.70;2.40;;;;;;;23.29;63.46;151857.28;5002572;28;20634;-66
2023/07/19 08:13:03;;;;;;;4.53;2.50;;;;;;;23.41;60.95;151887.38;5007226;28;20219;-66
2023/07/19 08:15:29;;;;;;;8.27;3.03;;;;;;;23.39;61.58;151882.34;5001699;28;20225;-65
2023/07/19 08:18:03;;;;;;;7.50;2.80;;;;;;;23.54;61.38;151917.50;5006257;28;20237;-65
2023/07/19 08:20:29;;;;;;;9.17;3.23;;;;;;;23.70;57.82;151957.66;5002217;28;20217;-66
2023/07/19 08:23:00;;;;;;;4.40;2.77;;;;;;;23.77;57.04;151974.00;5007032;28;20321;-65
2023/07/19 08:25:29;;;;;;;3.43;3.00;;;;;;;23.87;57.24;151997.81;5007037;28;20267;-65
2023/07/19 08:27:56;;;;;;;5.77;2.70;;;;;;;23.87;56.58;151997.81;5003551;28;20273;-65
2023/07/19 08:30:23;;;;;;;6.77;2.63;;;;;;;24.03;56.23;152036.78;5006313;28;20235;-65
2023/07/19 08:32:50;;;;;;;7.23;2.80;;;;;;;24.14;55.85;152064.38;5000886;28;20239;-65
2023/07/19 08:35:17;;;;;;;4.97;2.43;;;;;;;24.10;58.63;152053.13;5006063;28;20227;-65
2023/07/19 08:37:45;;;;;;;5.00;2.57;;;;;;;24.21;54.47;152079.44;5002846;28;20223;-66
2023/07/19 08:40:12;;;;;;;4.67;2.53;;;;;;;24.25;54.19;152089.50;5006364;28;20238;-66
2023/07/19 08:42:41;;;;;;;9.73;2.77;;;;;;;24.28;54.32;152098.31;5003142;28;20228;-65
2023/07/19 08:45:09;;;;;;;4.97;2.40;;;;;;;24.37;53.79;152118.41;5006235;28;20246;-64
2023/07/19 08:47:38;;;;;;;6.10;2.40;;;;;;;24.30;53.07;152103.34;5001414;28;20223;-65
2023/07/19 08:50:05;;;;;;;5.57;2.53;;;;;;;24.37;51.26;152118.41;5004710;28;20305;-65
2023/07/19 08:52:33;;;;;;;5.70;2.33;;;;;;;24.51;52.32;152152.28;5003459;28;20309;-65
2023/07/19 08:55:00;;;;;;;4.83;2.03;;;;;;;24.58;51.40;152169.88;5002605;28;20226;-65
2023/07/19 08:57:27;;;;;;;5.93;2.20;;;;;;;24.46;53.40;152142.22;5006094;28;20228;-65
2023/07/19 08:59:55;;;;;;;4.87;2.07;;;;;;;24.56;52.55;152166.06;5002293;28;20586;-65
2023/07/19 09:02:21;;;;;;;5.03;1.60;;;;;;;24.61;51.57;152177.41;5004351;28;20314;-65
2023/07/19 09:05:06;;;;;;;4.27;2.30;;;;;;;24.54;49.73;152161.06;5003310;28;20321;-65
2023/07/19 09:07:33;;;;;;;3.63;1.87;;;;;;;24.70;49.57;152198.72;5002359;28;20232;-66
2023/07/19 09:10:00;;;;;;;3.13;1.80;;;;;;;24.75;45.64;152212.59;5021458;28;20735;-66
2023/07/19 09:12:35;;;;;;;5.83;1.90;;;;;;;24.97;46.42;152265.31;5005979;28;20243;-65
2023/07/19 09:15:03;;;;;;;3.87;1.67;;;;;;;25.06;49.29;152286.69;5003524;28;20312;-65
2023/07/19 09:17:30;;;;;;;4.37;1.80;;;;;;;25.07;49.69;152289.22;5001615;28;20236;-65
2023/07/19 09:19:57;;;;;;;6.50;2.00;;;;;;;25.10;49.79;152295.47;5005134;28;20223;-66
2023/07/19 09:22:23;;;;;;;4.13;1.93;;;;;;;25.18;52.01;152316.84;5005575;28;20229;-66
2023/07/19 09:25:01;;;;;;;4.50;1.70;;;;;;;25.35;49.18;152357.03;5002714;28;20237;-65
2023/07/19 09:27:29;;;;;;;5.27;2.00;;;;;;;25.40;51.16;152369.59;5004093;28;20268;-65
2023/07/19 09:29:55;;;;;;;4.97;1.93;;;;;;;25.15;48.95;152309.31;5004013;28;20227;-66
2023/07/19 09:32:24;;;;;;;5.03;1.97;;;;;;;25.19;46.99;152318.06;5004473;28;20729;-65
2023/07/19 09:34:53;;;;;;;3.67;1.50;;;;;;;25.38;48.46;152364.56;5002112;28;20275;-65
2023/07/19 09:37:20;;;;;;;1.97;1.40;;;;;;;25.45;44.69;152382.16;5006101;28;20287;-66
2023/07/19 09:39:47;;;;;;;7.40;1.80;;;;;;;25.62;46.48;152423.66;4997094;28;21686;-65
2023/07/19 09:42:15;;;;;;;5.63;1.80;;;;;;;25.67;48.45;152434.94;5006095;28;20228;-65
2023/07/19 09:44:41;;;;;;;4.53;1.90;;;;;;;25.90;48.17;152491.50;5016132;28;20665;-65
2023/07/19 09:47:08;;;;;;;6.17;2.33;;;;;;;25.78;47.54;152462.59;5002359;28;20229;-66
2023/07/19 09:49:37;;;;;;;5.23;1.80;;;;;;;25.93;46.21;152499.06;5001228;28;20230;-65
2023/07/19 09:52:05;;;;;;;5.83;2.30;;;;;;;25.94;46.84;152500.28;5005625;28;20297;-65
2023/07/19 09:54:33;;;;;;;7.00;2.27;;;;;;;26.21;44.65;152565.69;5001056;28;20284;-65
2023/07/19 09:57:02;;;;;;;7.60;2.20;;;;;;;26.31;45.43;152590.81;5003975;28;20229;-66
2023/07/19 09:59:33;;;;;;;6.13;2.13;;;;;;;26.72;47.14;152688.81;4999181;28;20233;-66
2023/07/19 10:02:00;;;;;;;7.27;2.17;;;;;;;26.64;46.44;152669.97;5003009;28;20225;-67
2023/07/19 10:04:29;;;;;;;4.10;2.23;;;;;;;26.95;41.86;152746.69;5003268;28;20223;-66
2023/07/19 10:07:09;;;;;;;4.40;1.97;;;;;;;27.37;42.17;152848.53;4999854;28;20216;-66
2023/07/19 10:09:38;;;;;;;6.17;2.00;;;;;;;27.35;42.42;152842.25;5001607;28;20218;-65
2023/07/19 10:12:21;;;;;;;6.80;2.37;;;;;;;27.35;40.56;152842.25;5005383;28;20232;-67
2023/07/19 10:14:52;;;;;;;10.13;2.20;;;;;;;27.42;42.25;152859.88;5001816;28;22303;-66
2023/07/19 10:17:19;;;;;;;6.70;2.50;;;;;;;27.73;42.43;152935.31;5002968;28;20230;-66
2023/07/19 10:19:58;;;;;;;5.27;2.23;;;;;;;28.09;42.52;153022.13;5000856;28;20230;-66
2023/07/19 10:22:46;;;;;;;4.15;2.08;;;;;;;28.14;38.74;153034.72;5002954;28;20236;-66
2023/07/19 10:25:15;;;;;;;4.27;2.60;;;;;;;28.13;40.22;153032.22;5000201;28;20222;-66
2023/07/19 10:27:41;;;;;;;5.83;2.50;;;;;;;28.32;40.56;153078.78;5000961;28;20237;-66
2023/07/19 10:30:09;;;;;;;8.20;2.75;;;;;;;28.61;40.71;153149.25;5004833;28;20235;-66
2023/07/19 10:32:35;;;;;;;7.30;3.03;;;;;;;28.54;40.92;153131.63;4999644;28;20259;-66
2023/07/19 10:35:03;;;;;;;7.13;2.80;;;;;;;28.40;40.81;153097.63;5003575;28;20240;-66
2023/07/19 10:37:29;;;;;;;6.97;2.93;;;;;;;28.19;41.74;153046.06;5001030;28;20705;-66
2023/07/19 10:39:57;;;;;;;6.18;3.10;;;;;;;27.70;42.83;152929.06;5004982;28;20697;-64
2023/07/19 10:42:25;;;;;;;3.73;2.77;;;;;;;27.37;43.88;152847.28;5004501;28;20219;-64
2023/07/19 10:44:52;;;;;;;7.30;3.50;;;;;;;27.13;42.72;152788.16;5000648;28;20227;-64
2023/07/19 10:47:19;;;;;;;4.83;2.90;;;;;;;26.73;44.54;152692.63;5003203;28;20226;-64
2023/07/19 10:49:47;;;;;;;6.00;2.80;;;;;;;26.31;46.64;152590.81;5001663;28;20237;-64
2023/07/19 10:52:13;;;;;;;6.00;2.67;;;;;;;26.23;48.94;152570.72;5004068;28;20253;-64
2023/07/19 10:54:40;;;;;;;7.37;3.30;;;;;;;26.07;48.98;152531.69;5001117;28;20281;-64
2023/07/19 10:57:09;;;;;;;8.67;3.20;;;;;;;26.44;47.57;152622.22;5003698;28;20241;-64
2023/07/19 10:59:36;;;;;;;6.10;3.25;;;;;;;26.84;46.26;152717.81;4998797;28;21111;-66
2023/07/19 11:02:02;;;;;;;8.83;4.20;;;;;;;26.84;46.41;152719.03;5017970;28;20231;-65
2023/07/19 11:04:30;;;;;;;6.23;3.53;;;;;;;26.71;46.42;152687.59;5000420;28;20222;-65
2023/07/19 11:06:59;;;;;;;6.10;3.40;;;;;;;27.00;46.38;152756.75;5004364;28;20223;-65
2023/07/19 11:09:27;;;;;;;7.73;4.10;;;;;;;26.83;47.86;152715.28;5002683;28;20231;-65
2023/07/19 11:11:54;;;;;;;6.30;3.63;;;;;;;27.50;48.01;152878.75;5001413;28;20605;-65
2023/07/19 11:14:29;;;;;;;7.93;3.67;;;;;;;27.75;48.45;152940.34;5003494;28;20217;-65
2023/07/19 11:16:56;;;;;;;5.77;3.50;;;;;;;28.13;45.79;153033.50;5000197;28;20224;-65
2023/07/19 11:19:34;;;;;;;7.77;3.70;;;;;;;28.29;45.10;153072.47;5004037;28;20253;-65
2023/07/19 11:22:00;;;;;;;5.17;3.70;;;;;;;27.91;46.48;152979.38;5003877;28;20283;-65
2023/07/19 11:24:34;;;;;;;7.83;4.17;;;;;;;27.44;47.05;152864.91;5007639;28;20233;-65
2023/07/19 11:27:01;;;;;;;9.17;4.40;;;;;;;27.19;46.52;152803.25;5004006;28;20222;-64
2023/07/19 11:29:32;;;;;;;7.90;4.07;;;;;;;26.94;48.41;152744.19;5003867;28;20227;-65